sensor_id;sensor_type;location;lat;lon;timestamp;pressure;altitude;pressure_sealevel;temperature;humidity
10712;BME280;5407;51.234;6.804;2024-02-16T00:02:14;100573.03;;;15.15;74.90
10712;BME280;5407;51.234;6.804;2024-02-16T00:04:42;100564.44;;;15.10;75.04
10712;BME280;5407;51.234;6.804;2024-02-16T00:07:08;100558.94;;;15.06;74.99
10712;BME280;5407;51.234;6.804;2024-02-16T00:09:36;100566.09;;;15.21;74.58
10712;BME280;5407;51.234;6.804;2024-02-16T00:12:04;100560.19;;;15.12;74.89
10712;BME280;5407;51.234;6.804;2024-02-16T00:14:31;100569.16;;;15.16;74.55
10712;BME280;5407;51.234;6.804;2024-02-16T00:16:59;100567.66;;;15.22;74.35
10712;BME280;5407;51.234;6.804;2024-02-16T00:19:27;100562.53;;;15.14;74.66
10712;BME280;5407;51.234;6.804;2024-02-16T00:21:54;100567.66;;;15.22;74.77
10712;BME280;5407;51.234;6.804;2024-02-16T00:24:21;100573.19;;;15.29;74.60
10712;BME280;5407;51.234;6.804;2024-02-16T00:26:48;100570.09;;;15.31;74.49
10712;BME280;5407;51.234;6.804;2024-02-16T00:29:16;100574.75;;;15.30;74.54
10712;BME280;5407;51.234;6.804;2024-02-16T00:31:44;100568.44;;;15.23;74.65
10712;BME280;5407;51.234;6.804;2024-02-16T00:34:11;100571.53;;;15.21;74.63
10712;BME280;5407;51.234;6.804;2024-02-16T00:36:38;100573.84;;;15.23;74.69
10712;BME280;5407;51.234;6.804;2024-02-16T00:39:05;100573.91;;;15.26;74.60
10712;BME280;5407;51.234;6.804;2024-02-16T00:41:32;100575.81;;;15.26;74.50
10712;BME280;5407;51.234;6.804;2024-02-16T00:43:59;100568.56;;;15.33;74.14
10712;BME280;5407;51.234;6.804;2024-02-16T00:46:27;100565.09;;;15.36;74.05
10712;BME280;5407;51.234;6.804;2024-02-16T00:48:54;100553.44;;;15.36;73.88
10712;BME280;5407;51.234;6.804;2024-02-16T00:51:21;100562.31;;;15.29;74.07
10712;BME280;5407;51.234;6.804;2024-02-16T00:53:49;100556.53;;;15.34;73.48
10712;BME280;5407;51.234;6.804;2024-02-16T00:56:16;100562.38;;;15.36;73.54
10712;BME280;5407;51.234;6.804;2024-02-16T00:58:42;100561.97;;;15.31;73.54
10712;BME280;5407;51.234;6.804;2024-02-16T01:01:10;100565.47;;;15.35;73.60
10712;BME280;5407;51.234;6.804;2024-02-16T01:03:39;100567.78;;;15.33;73.59
10712;BME280;5407;51.234;6.804;2024-02-16T01:06:06;100565.94;;;15.44;73.17
10712;BME280;5407;51.234;6.804;2024-02-16T01:08:34;100567.75;;;15.29;73.80
10712;BME280;5407;51.234;6.804;2024-02-16T01:11:01;100560.81;;;15.35;73.45
10712;BME280;5407;51.234;6.804;2024-02-16T01:13:28;100555.84;;;15.44;73.38
10712;BME280;5407;51.234;6.804;2024-02-16T01:15:55;100563.63;;;15.49;72.96
10712;BME280;5407;51.234;6.804;2024-02-16T01:18:21;100562.44;;;15.43;73.45
10712;BME280;5407;51.234;6.804;2024-02-16T01:20:50;100555.44;;;15.42;73.24
10712;BME280;5407;51.234;6.804;2024-02-16T01:23:16;100560.88;;;15.42;73.06
10712;BME280;5407;51.234;6.804;2024-02-16T01:25:43;100550.34;;;15.37;73.43
10712;BME280;5407;51.234;6.804;2024-02-16T01:28:10;100548.44;;;15.41;73.40
10712;BME280;5407;51.234;6.804;2024-02-16T01:30:38;100542.59;;;15.39;73.31
10712;BME280;5407;51.234;6.804;2024-02-16T01:33:05;100544.19;;;15.44;73.23
10712;BME280;5407;51.234;6.804;2024-02-16T01:35:32;100547.00;;;15.54;72.55
10712;BME280;5407;51.234;6.804;2024-02-16T01:38:01;100546.16;;;15.47;72.93
10712;BME280;5407;51.234;6.804;2024-02-16T01:40:28;100555.81;;;15.41;72.94
10712;BME280;5407;51.234;6.804;2024-02-16T01:42:55;100546.09;;;15.40;73.14
10712;BME280;5407;51.234;6.804;2024-02-16T01:45:22;100550.88;;;15.57;72.77
10712;BME280;5407;51.234;6.804;2024-02-16T01:47:50;100542.69;;;15.53;72.74
10712;BME280;5407;51.234;6.804;2024-02-16T01:50:18;100545.41;;;15.50;72.75
10712;BME280;5407;51.234;6.804;2024-02-16T01:52:47;100548.47;;;15.48;72.94
10712;BME280;5407;51.234;6.804;2024-02-16T01:55:16;100549.25;;;15.45;73.14
10712;BME280;5407;51.234;6.804;2024-02-16T01:57:44;100548.44;;;15.41;73.24
10712;BME280;5407;51.234;6.804;2024-02-16T02:00:12;100553.91;;;15.45;73.02
10712;BME280;5407;51.234;6.804;2024-02-16T02:02:41;100561.63;;;15.39;73.02
10712;BME280;5407;51.234;6.804;2024-02-16T02:05:10;100552.31;;;15.40;72.95
10712;BME280;5407;51.234;6.804;2024-02-16T02:07:37;100553.88;;;15.41;73.16
10712;BME280;5407;51.234;6.804;2024-02-16T02:10:04;100550.81;;;15.46;72.74
10712;BME280;5407;51.234;6.804;2024-02-16T02:12:32;100545.72;;;15.41;73.03
10712;BME280;5407;51.234;6.804;2024-02-16T02:15:00;100546.13;;;15.43;73.02
10712;BME280;5407;51.234;6.804;2024-02-16T02:17:28;100542.66;;;15.46;73.05
10712;BME280;5407;51.234;6.804;2024-02-16T02:19:55;100536.13;;;15.54;72.68
10712;BME280;5407;51.234;6.804;2024-02-16T02:22:23;100543.75;;;15.38;74.74
10712;BME280;5407;51.234;6.804;2024-02-16T02:24:52;100531.72;;;15.39;76.12
10712;BME280;5407;51.234;6.804;2024-02-16T02:27:20;100537.50;;;15.34;77.59
10712;BME280;5407;51.234;6.804;2024-02-16T02:29:47;100523.72;;;15.17;77.69
10712;BME280;5407;51.234;6.804;2024-02-16T02:32:14;100528.88;;;15.25;78.36
10712;BME280;5407;51.234;6.804;2024-02-16T02:34:41;100524.53;;;15.17;79.18
10712;BME280;5407;51.234;6.804;2024-02-16T02:37:08;100524.09;;;15.12;78.68
10712;BME280;5407;51.234;6.804;2024-02-16T02:39:37;100513.66;;;15.17;78.94
10712;BME280;5407;51.234;6.804;2024-02-16T02:42:04;100514.00;;;15.12;78.61
10712;BME280;5407;51.234;6.804;2024-02-16T02:44:31;100507.75;;;15.08;78.58
10712;BME280;5407;51.234;6.804;2024-02-16T02:46:58;100510.56;;;15.19;78.18
10712;BME280;5407;51.234;6.804;2024-02-16T02:49:24;100505.91;;;15.19;78.03
10712;BME280;5407;51.234;6.804;2024-02-16T02:51:51;100508.56;;;15.12;78.05
10712;BME280;5407;51.234;6.804;2024-02-16T02:54:18;100507.84;;;15.19;77.96
10712;BME280;5407;51.234;6.804;2024-02-16T02:56:46;100508.22;;;15.17;78.11
10712;BME280;5407;51.234;6.804;2024-02-16T02:59:13;100508.16;;;15.10;78.52
10712;BME280;5407;51.234;6.804;2024-02-16T03:01:40;100510.84;;;15.07;78.45
10712;BME280;5407;51.234;6.804;2024-02-16T03:04:07;100499.66;;;15.15;78.01
10712;BME280;5407;51.234;6.804;2024-02-16T03:06:35;100500.41;;;15.12;78.24
10712;BME280;5407;51.234;6.804;2024-02-16T03:09:01;100504.09;;;15.30;77.97
10712;BME280;5407;51.234;6.804;2024-02-16T03:11:28;100501.59;;;15.15;77.95
10712;BME280;5407;51.234;6.804;2024-02-16T03:13:56;100502.44;;;15.22;77.54
10712;BME280;5407;51.234;6.804;2024-02-16T03:16:23;100498.50;;;15.16;77.33
10712;BME280;5407;51.234;6.804;2024-02-16T03:18:50;100500.84;;;15.18;77.63
10712;BME280;5407;51.234;6.804;2024-02-16T03:21:17;100498.56;;;15.23;77.45
10712;BME280;5407;51.234;6.804;2024-02-16T03:23:44;100505.50;;;15.17;77.64
10712;BME280;5407;51.234;6.804;2024-02-16T03:26:15;100505.91;;;15.23;77.29
10712;BME280;5407;51.234;6.804;2024-02-16T03:28:43;100502.38;;;15.15;77.11
10712;BME280;5407;51.234;6.804;2024-02-16T03:31:16;100506.25;;;15.14;77.43
10712;BME280;5407;51.234;6.804;2024-02-16T03:33:43;100507.81;;;15.15;77.63
10712;BME280;5407;51.234;6.804;2024-02-16T03:36:10;100496.50;;;15.10;78.03
10712;BME280;5407;51.234;6.804;2024-02-16T03:38:41;100495.44;;;15.21;77.22
10712;BME280;5407;51.234;6.804;2024-02-16T03:41:07;100490.00;;;15.21;77.74
10712;BME280;5407;51.234;6.804;2024-02-16T03:43:34;100490.66;;;15.08;78.11
10712;BME280;5407;51.234;6.804;2024-02-16T03:46:01;100493.03;;;15.09;78.16
10712;BME280;5407;51.234;6.804;2024-02-16T03:48:30;100496.16;;;15.11;78.56
10712;BME280;5407;51.234;6.804;2024-02-16T03:50:57;100495.31;;;15.07;78.35
10712;BME280;5407;51.234;6.804;2024-02-16T03:53:24;100499.28;;;15.13;78.70
10712;BME280;5407;51.234;6.804;2024-02-16T03:55:51;100494.59;;;15.14;78.52
10712;BME280;5407;51.234;6.804;2024-02-16T03:58:17;100492.28;;;15.12;78.60
10712;BME280;5407;51.234;6.804;2024-02-16T04:00:44;100488.75;;;15.08;79.11
10712;BME280;5407;51.234;6.804;2024-02-16T04:03:11;100489.22;;;15.17;78.82
10712;BME280;5407;51.234;6.804;2024-02-16T04:05:39;100481.47;;;15.19;79.11
10712;BME280;5407;51.234;6.804;2024-02-16T04:08:06;100482.91;;;15.10;79.01
10712;BME280;5407;51.234;6.804;2024-02-16T04:10:33;100492.22;;;15.09;79.30
10712;BME280;5407;51.234;6.804;2024-02-16T04:13:01;100497.66;;;15.09;79.37
10712;BME280;5407;51.234;6.804;2024-02-16T04:15:28;100500.75;;;15.07;79.18
10712;BME280;5407;51.234;6.804;2024-02-16T04:17:55;100495.00;;;15.12;79.32
10712;BME280;5407;51.234;6.804;2024-02-16T04:20:22;100486.84;;;15.12;79.47
10712;BME280;5407;51.234;6.804;2024-02-16T04:22:50;100497.00;;;15.22;79.11
10712;BME280;5407;51.234;6.804;2024-02-16T04:25:17;100499.28;;;15.17;79.57
10712;BME280;5407;51.234;6.804;2024-02-16T04:27:44;100502.78;;;15.17;79.41
10712;BME280;5407;51.234;6.804;2024-02-16T04:30:11;100509.34;;;15.13;79.43
10712;BME280;5407;51.234;6.804;2024-02-16T04:32:38;100508.56;;;15.12;79.55
10712;BME280;5407;51.234;6.804;2024-02-16T04:35:05;100502.72;;;15.10;79.43
10712;BME280;5407;51.234;6.804;2024-02-16T04:37:32;100502.34;;;15.08;79.36
10712;BME280;5407;51.234;6.804;2024-02-16T04:40:00;100511.69;;;15.14;79.71
10712;BME280;5407;51.234;6.804;2024-02-16T04:42:27;100512.84;;;15.13;79.92
10712;BME280;5407;51.234;6.804;2024-02-16T04:44:55;100516.34;;;15.14;80.06
10712;BME280;5407;51.234;6.804;2024-02-16T04:47:21;100521.66;;;15.03;80.55
10712;BME280;5407;51.234;6.804;2024-02-16T04:49:48;100515.81;;;15.01;80.71
10712;BME280;5407;51.234;6.804;2024-02-16T04:52:15;100538.34;;;15.02;80.74
10712;BME280;5407;51.234;6.804;2024-02-16T04:54:42;100533.22;;;14.93;81.15
10712;BME280;5407;51.234;6.804;2024-02-16T04:57:10;100548.84;;;15.03;81.05
10712;BME280;5407;51.234;6.804;2024-02-16T04:59:37;100532.81;;;14.91;81.67
10712;BME280;5407;51.234;6.804;2024-02-16T05:02:04;100528.19;;;14.95;81.77
10712;BME280;5407;51.234;6.804;2024-02-16T05:04:32;100531.66;;;14.92;82.06
10712;BME280;5407;51.234;6.804;2024-02-16T05:07:00;100538.34;;;15.02;82.15
10712;BME280;5407;51.234;6.804;2024-02-16T05:09:26;100526.22;;;14.92;82.88
10712;BME280;5407;51.234;6.804;2024-02-16T05:11:53;100522.34;;;14.93;82.88
10712;BME280;5407;51.234;6.804;2024-02-16T05:14:21;100522.28;;;14.86;83.29
10712;BME280;5407;51.234;6.804;2024-02-16T05:16:49;100511.53;;;15.00;83.22
10712;BME280;5407;51.234;6.804;2024-02-16T05:19:16;100521.94;;;14.91;83.79
10712;BME280;5407;51.234;6.804;2024-02-16T05:21:43;100516.91;;;14.93;84.13
10712;BME280;5407;51.234;6.804;2024-02-16T05:24:10;100516.09;;;14.89;84.32
10712;BME280;5407;51.234;6.804;2024-02-16T05:26:37;100512.97;;;14.87;84.81
10712;BME280;5407;51.234;6.804;2024-02-16T05:29:04;100518.81;;;14.89;84.83
10712;BME280;5407;51.234;6.804;2024-02-16T05:31:32;100521.53;;;14.89;85.31
10712;BME280;5407;51.234;6.804;2024-02-16T05:33:59;100522.97;;;14.76;85.79
10712;BME280;5407;51.234;6.804;2024-02-16T05:36:25;100513.38;;;14.86;85.56
10712;BME280;5407;51.234;6.804;2024-02-16T05:38:55;100513.63;;;14.74;86.16
10712;BME280;5407;51.234;6.804;2024-02-16T05:41:31;100512.91;;;14.80;86.33
10712;BME280;5407;51.234;6.804;2024-02-16T05:43:58;100503.56;;;14.78;86.62
10712;BME280;5407;51.234;6.804;2024-02-16T05:46:26;100507.03;;;14.75;86.69
10712;BME280;5407;51.234;6.804;2024-02-16T05:48:54;100510.47;;;14.68;86.87
10712;BME280;5407;51.234;6.804;2024-02-16T05:51:21;100504.25;;;14.68;86.89
10712;BME280;5407;51.234;6.804;2024-02-16T05:53:48;100502.00;;;14.73;87.06
10712;BME280;5407;51.234;6.804;2024-02-16T05:56:15;100508.97;;;14.74;86.61
10712;BME280;5407;51.234;6.804;2024-02-16T05:58:42;100514.41;;;14.74;86.73
10712;BME280;5407;51.234;6.804;2024-02-16T06:01:08;100517.47;;;14.73;86.61
10712;BME280;5407;51.234;6.804;2024-02-16T06:03:37;100510.66;;;14.86;86.33
10712;BME280;5407;51.234;6.804;2024-02-16T06:06:08;100509.78;;;14.78;86.28
10712;BME280;5407;51.234;6.804;2024-02-16T06:08:35;100521.34;;;14.72;86.57
10712;BME280;5407;51.234;6.804;2024-02-16T06:11:02;100515.63;;;14.80;86.44
10712;BME280;5407;51.234;6.804;2024-02-16T06:13:30;100521.41;;;14.75;85.96
10712;BME280;5407;51.234;6.804;2024-02-16T06:15:56;100526.22;;;14.89;85.60
10712;BME280;5407;51.234;6.804;2024-02-16T06:18:23;100530.84;;;14.88;85.36
10712;BME280;5407;51.234;6.804;2024-02-16T06:20:50;100527.66;;;14.79;86.00
10712;BME280;5407;51.234;6.804;2024-02-16T06:23:19;100522.97;;;14.80;85.79
10712;BME280;5407;51.234;6.804;2024-02-16T06:25:45;100520.72;;;14.85;85.73
10712;BME280;5407;51.234;6.804;2024-02-16T06:28:12;100520.44;;;14.94;85.33
10712;BME280;5407;51.234;6.804;2024-02-16T06:30:39;100519.28;;;14.98;85.08
10712;BME280;5407;51.234;6.804;2024-02-16T06:33:06;100516.97;;;14.97;84.94
10712;BME280;5407;51.234;6.804;2024-02-16T06:35:33;100512.97;;;14.87;84.81
10712;BME280;5407;51.234;6.804;2024-02-16T06:38:00;100505.28;;;14.93;84.79
10712;BME280;5407;51.234;6.804;2024-02-16T06:40:28;100517.72;;;14.94;84.82
10712;BME280;5407;51.234;6.804;2024-02-16T06:42:55;100526.94;;;14.86;85.15
10712;BME280;5407;51.234;6.804;2024-02-16T06:45:22;100537.84;;;14.89;84.95
10712;BME280;5407;51.234;6.804;2024-02-16T06:47:49;100540.03;;;14.77;85.28
10712;BME280;5407;51.234;6.804;2024-02-16T06:50:15;100548.63;;;14.82;85.29
10712;BME280;5407;51.234;6.804;2024-02-16T06:52:42;100537.38;;;14.84;84.67
10712;BME280;5407;51.234;6.804;2024-02-16T06:55:09;100549.41;;;14.83;84.39
10712;BME280;5407;51.234;6.804;2024-02-16T06:57:37;100555.63;;;14.83;84.34
10712;BME280;5407;51.234;6.804;2024-02-16T07:00:05;100559.91;;;14.84;84.32
10712;BME280;5407;51.234;6.804;2024-02-16T07:02:34;100575.09;;;14.92;84.27
10712;BME280;5407;51.234;6.804;2024-02-16T07:05:01;100579.91;;;15.06;83.55
10712;BME280;5407;51.234;6.804;2024-02-16T07:07:28;100576.69;;;14.93;83.77
10712;BME280;5407;51.234;6.804;2024-02-16T07:09:55;100579.06;;;14.98;83.49
10712;BME280;5407;51.234;6.804;2024-02-16T07:12:22;100590.31;;;14.97;83.51
10712;BME280;5407;51.234;6.804;2024-02-16T07:14:50;100586.03;;;14.99;83.51
10712;BME280;5407;51.234;6.804;2024-02-16T07:17:17;100598.13;;;15.05;82.91
10712;BME280;5407;51.234;6.804;2024-02-16T07:19:44;100586.50;;;15.05;82.96
10712;BME280;5407;51.234;6.804;2024-02-16T07:22:11;100599.22;;;14.97;82.96
10712;BME280;5407;51.234;6.804;2024-02-16T07:24:38;100600.84;;;15.05;82.63
10712;BME280;5407;51.234;6.804;2024-02-16T07:27:05;100598.53;;;15.04;82.24
10712;BME280;5407;51.234;6.804;2024-02-16T07:29:31;100611.66;;;14.98;82.71
10712;BME280;5407;51.234;6.804;2024-02-16T07:32:00;100617.81;;;15.28;81.66
10712;BME280;5407;51.234;6.804;2024-02-16T07:34:28;100614.25;;;15.24;82.12
10712;BME280;5407;51.234;6.804;2024-02-16T07:36:55;100625.13;;;15.24;82.08
10712;BME280;5407;51.234;6.804;2024-02-16T07:39:23;100629.47;;;15.29;81.24
10712;BME280;5407;51.234;6.804;2024-02-16T07:41:50;100631.88;;;15.37;80.70
10712;BME280;5407;51.234;6.804;2024-02-16T07:44:17;100633.38;;;15.31;80.68
10712;BME280;5407;51.234;6.804;2024-02-16T07:46:44;100638.31;;;15.22;80.76
10712;BME280;5407;51.234;6.804;2024-02-16T07:49:12;100645.47;;;15.37;80.36
10712;BME280;5407;51.234;6.804;2024-02-16T07:51:40;100641.59;;;15.38;79.95
10712;BME280;5407;51.234;6.804;2024-02-16T07:54:07;100645.81;;;15.32;80.11
10712;BME280;5407;51.234;6.804;2024-02-16T07:56:34;100641.25;;;15.40;80.06
10712;BME280;5407;51.234;6.804;2024-02-16T07:59:01;100651.78;;;15.48;79.44
10712;BME280;5407;51.234;6.804;2024-02-16T08:01:28;100655.31;;;15.52;79.21
10712;BME280;5407;51.234;6.804;2024-02-16T08:03:54;100656.47;;;15.51;79.54
10712;BME280;5407;51.234;6.804;2024-02-16T08:06:26;100655.88;;;15.68;78.52
10712;BME280;5407;51.234;6.804;2024-02-16T08:08:53;100655.78;;;15.58;78.38
10712;BME280;5407;51.234;6.804;2024-02-16T08:11:20;100661.84;;;15.44;78.99
10712;BME280;5407;51.234;6.804;2024-02-16T08:13:47;100667.00;;;15.53;79.12
10712;BME280;5407;51.234;6.804;2024-02-16T08:16:14;100671.50;;;15.38;79.33
10712;BME280;5407;51.234;6.804;2024-02-16T08:18:43;100671.22;;;15.47;78.90
10712;BME280;5407;51.234;6.804;2024-02-16T08:21:11;100670.56;;;15.60;78.71
10712;BME280;5407;51.234;6.804;2024-02-16T08:23:39;100673.63;;;15.55;78.71
10712;BME280;5407;51.234;6.804;2024-02-16T08:26:06;100676.06;;;15.67;78.11
10712;BME280;5407;51.234;6.804;2024-02-16T08:28:32;100669.94;;;15.77;77.64
10712;BME280;5407;51.234;6.804;2024-02-16T08:30:59;100672.72;;;15.84;77.22
10712;BME280;5407;51.234;6.804;2024-02-16T08:33:26;100673.88;;;15.83;76.92
10712;BME280;5407;51.234;6.804;2024-02-16T08:35:53;100687.06;;;15.81;77.02
10712;BME280;5407;51.234;6.804;2024-02-16T08:38:20;100681.06;;;16.05;76.57
10712;BME280;5407;51.234;6.804;2024-02-16T08:40:48;100689.69;;;16.14;76.06
10712;BME280;5407;51.234;6.804;2024-02-16T08:43:17;100689.00;;;16.31;75.82
10712;BME280;5407;51.234;6.804;2024-02-16T08:45:44;100688.16;;;16.20;76.17
10712;BME280;5407;51.234;6.804;2024-02-16T08:48:11;100687.91;;;16.35;74.93
10712;BME280;5407;51.234;6.804;2024-02-16T08:50:38;100684.56;;;16.56;74.64
10712;BME280;5407;51.234;6.804;2024-02-16T08:53:04;100692.34;;;16.61;74.55
10712;BME280;5407;51.234;6.804;2024-02-16T08:55:31;100690.41;;;16.58;73.84
10712;BME280;5407;51.234;6.804;2024-02-16T08:57:59;100696.97;;;16.50;74.39
10712;BME280;5407;51.234;6.804;2024-02-16T09:00:26;100693.09;;;16.54;74.31
10712;BME280;5407;51.234;6.804;2024-02-16T09:02:53;100693.16;;;16.65;73.80
10712;BME280;5407;51.234;6.804;2024-02-16T09:05:20;100700.16;;;16.69;73.87
10712;BME280;5407;51.234;6.804;2024-02-16T09:07:47;100707.53;;;16.62;74.03
10712;BME280;5407;51.234;6.804;2024-02-16T09:10:14;100702.47;;;16.60;73.90
10712;BME280;5407;51.234;6.804;2024-02-16T09:12:41;100718.06;;;16.67;74.07
10712;BME280;5407;51.234;6.804;2024-02-16T09:15:10;100719.59;;;16.61;73.78
10712;BME280;5407;51.234;6.804;2024-02-16T09:17:37;100710.72;;;16.78;73.70
10712;BME280;5407;51.234;6.804;2024-02-16T09:20:05;100726.22;;;16.63;73.93
10712;BME280;5407;51.234;6.804;2024-02-16T09:22:33;100724.25;;;16.57;73.92
10712;BME280;5407;51.234;6.804;2024-02-16T09:25:01;100722.69;;;16.56;74.30
10712;BME280;5407;51.234;6.804;2024-02-16T09:27:28;100728.09;;;16.49;74.90
10712;BME280;5407;51.234;6.804;2024-02-16T09:29:55;100735.19;;;16.64;74.34
10712;BME280;5407;51.234;6.804;2024-02-16T09:32:23;100730.88;;;16.63;74.49
10712;BME280;5407;51.234;6.804;2024-02-16T09:34:50;100727.31;;;16.52;74.69
10712;BME280;5407;51.234;6.804;2024-02-16T09:37:17;100733.22;;;16.61;74.65
10712;BME280;5407;51.234;6.804;2024-02-16T09:39:46;100741.41;;;16.68;75.08
10712;BME280;5407;51.234;6.804;2024-02-16T09:42:13;100743.38;;;16.71;74.24
10712;BME280;5407;51.234;6.804;2024-02-16T09:44:42;100743.38;;;16.71;74.88
10712;BME280;5407;51.234;6.804;2024-02-16T09:47:10;100744.63;;;16.80;74.42
10712;BME280;5407;51.234;6.804;2024-02-16T09:49:40;100748.47;;;16.76;74.27
10712;BME280;5407;51.234;6.804;2024-02-16T09:52:10;100753.16;;;16.75;74.75
10712;BME280;5407;51.234;6.804;2024-02-16T09:54:37;100756.13;;;16.53;75.04
10712;BME280;5407;51.234;6.804;2024-02-16T09:57:05;100754.47;;;16.41;76.26
10712;BME280;5407;51.234;6.804;2024-02-16T09:59:32;100763.03;;;16.43;76.08
10712;BME280;5407;51.234;6.804;2024-02-16T10:02:00;100766.25;;;16.56;76.09
10712;BME280;5407;51.234;6.804;2024-02-16T10:04:27;100768.19;;;16.55;76.49
10712;BME280;5407;51.234;6.804;2024-02-16T10:06:56;100769.41;;;16.65;76.06
10712;BME280;5407;51.234;6.804;2024-02-16T10:09:24;100786.44;;;16.48;76.63
10712;BME280;5407;51.234;6.804;2024-02-16T10:11:51;100785.69;;;16.54;76.00
10712;BME280;5407;51.234;6.804;2024-02-16T10:14:18;100784.97;;;16.61;75.77
10712;BME280;5407;51.234;6.804;2024-02-16T10:16:46;100790.06;;;16.69;75.83
10712;BME280;5407;51.234;6.804;2024-02-16T10:19:13;100781.25;;;16.86;75.33
10712;BME280;5407;51.234;6.804;2024-02-16T10:21:40;100791.03;;;17.01;74.68
10712;BME280;5407;51.234;6.804;2024-02-16T10:24:11;100796.91;;;17.03;74.75
10712;BME280;5407;51.234;6.804;2024-02-16T10:26:40;100807.78;;;17.00;74.15
10712;BME280;5407;51.234;6.804;2024-02-16T10:29:09;100801.16;;;16.94;74.98
10712;BME280;5407;51.234;6.804;2024-02-16T10:31:36;100799.50;;;16.82;75.59
10712;BME280;5407;51.234;6.804;2024-02-16T10:34:04;100813.09;;;16.79;75.89
10712;BME280;5407;51.234;6.804;2024-02-16T10:36:33;100817.66;;;16.64;77.07
10712;BME280;5407;51.234;6.804;2024-02-16T10:39:01;100825.56;;;16.80;77.23
10712;BME280;5407;51.234;6.804;2024-02-16T10:41:34;100831.63;;;16.56;78.23
10712;BME280;5407;51.234;6.804;2024-02-16T10:44:01;100836.31;;;16.59;78.47
10712;BME280;5407;51.234;6.804;2024-02-16T10:46:29;100834.81;;;16.68;77.85
10712;BME280;5407;51.234;6.804;2024-02-16T10:48:57;100837.91;;;16.67;78.68
10712;BME280;5407;51.234;6.804;2024-02-16T10:51:25;100846.47;;;16.65;78.70
10712;BME280;5407;51.234;6.804;2024-02-16T10:53:56;100843.47;;;16.77;78.56
10712;BME280;5407;51.234;6.804;2024-02-16T10:56:33;100841.91;;;16.80;78.40
10712;BME280;5407;51.234;6.804;2024-02-16T10:59:01;100840.34;;;16.79;78.75
10712;BME280;5407;51.234;6.804;2024-02-16T11:01:32;100832.50;;;16.70;79.11
10712;BME280;5407;51.234;6.804;2024-02-16T11:04:03;100838.78;;;16.74;79.29
10712;BME280;5407;51.234;6.804;2024-02-16T11:06:30;100841.91;;;16.80;79.68
10712;BME280;5407;51.234;6.804;2024-02-16T11:09:02;100844.97;;;16.71;79.50
10712;BME280;5407;51.234;6.804;2024-02-16T11:11:34;100846.22;;;16.84;79.37
10712;BME280;5407;51.234;6.804;2024-02-16T11:14:02;100851.94;;;16.69;79.85
10712;BME280;5407;51.234;6.804;2024-02-16T11:16:30;100852.00;;;16.76;80.06
10712;BME280;5407;51.234;6.804;2024-02-16T11:18:57;100851.28;;;16.82;80.29
10712;BME280;5407;51.234;6.804;2024-02-16T11:21:23;100849.28;;;16.76;80.43
10712;BME280;5407;51.234;6.804;2024-02-16T11:23:51;100853.59;;;16.84;80.70
10712;BME280;5407;51.234;6.804;2024-02-16T11:26:17;100852.88;;;16.90;80.37
10712;BME280;5407;51.234;6.804;2024-02-16T11:28:46;100852.94;;;16.94;80.30
10712;BME280;5407;51.234;6.804;2024-02-16T11:31:13;100856.34;;;16.84;81.11
10712;BME280;5407;51.234;6.804;2024-02-16T11:33:43;100855.97;;;16.89;80.88
10712;BME280;5407;51.234;6.804;2024-02-16T11:36:10;100866.41;;;16.76;81.75
10712;BME280;5407;51.234;6.804;2024-02-16T11:38:37;100871.88;;;16.80;81.89
10712;BME280;5407;51.234;6.804;2024-02-16T11:41:06;100875.41;;;16.84;82.00
10712;BME280;5407;51.234;6.804;2024-02-16T11:43:34;100869.56;;;16.82;82.47
10712;BME280;5407;51.234;6.804;2024-02-16T11:46:12;100862.94;;;16.83;82.81
10712;BME280;5407;51.234;6.804;2024-02-16T11:48:39;100865.66;;;16.83;82.80
10712;BME280;5407;51.234;6.804;2024-02-16T11:51:06;100876.09;;;16.70;83.46
10712;BME280;5407;51.234;6.804;2024-02-16T11:53:33;100876.97;;;16.85;83.00
10712;BME280;5407;51.234;6.804;2024-02-16T11:56:00;100874.66;;;16.87;83.09
10712;BME280;5407;51.234;6.804;2024-02-16T11:58:27;100874.28;;;16.88;83.39
10712;BME280;5407;51.234;6.804;2024-02-16T12:00:54;100874.59;;;16.80;83.83
10712;BME280;5407;51.234;6.804;2024-02-16T12:03:26;100867.50;;;16.68;84.73
10712;BME280;5407;51.234;6.804;2024-02-16T12:05:54;100873.03;;;16.79;83.99
10712;BME280;5407;51.234;6.804;2024-02-16T12:08:22;100876.91;;;16.78;84.58
10712;BME280;5407;51.234;6.804;2024-02-16T12:10:50;100869.91;;;16.77;85.03
10712;BME280;5407;51.234;6.804;2024-02-16T12:13:18;100866.03;;;16.78;85.14
10712;BME280;5407;51.234;6.804;2024-02-16T12:15:45;100875.34;;;16.73;85.18
10712;BME280;5407;51.234;6.804;2024-02-16T12:18:19;100869.59;;;16.89;84.94
10712;BME280;5407;51.234;6.804;2024-02-16T12:20:58;100870.22;;;16.68;85.83
10712;BME280;5407;51.234;6.804;2024-02-16T12:23:25;100869.34;;;16.54;87.34
10712;BME280;5407;51.234;6.804;2024-02-16T12:25:52;100879.28;;;16.79;86.47
10712;BME280;5407;51.234;6.804;2024-02-16T12:28:19;100880.66;;;16.59;87.71
10712;BME280;5407;51.234;6.804;2024-02-16T12:30:47;100885.50;;;16.80;86.74
10712;BME280;5407;51.234;6.804;2024-02-16T12:33:14;100885.44;;;16.73;87.22
10712;BME280;5407;51.234;6.804;2024-02-16T12:35:41;100894.69;;;16.61;88.13
10712;BME280;5407;51.234;6.804;2024-02-16T12:38:11;100901.75;;;16.66;88.50
10712;BME280;5407;51.234;6.804;2024-02-16T12:40:38;100897.81;;;16.63;88.70
10712;BME280;5407;51.234;6.804;2024-02-16T12:43:05;100902.44;;;16.59;89.35
10712;BME280;5407;51.234;6.804;2024-02-16T12:45:34;100898.59;;;16.64;89.36
10712;BME280;5407;51.234;6.804;2024-02-16T12:48:01;100901.63;;;16.52;90.50
10712;BME280;5407;51.234;6.804;2024-02-16T12:50:29;100904.34;;;16.52;90.89
10712;BME280;5407;51.234;6.804;2024-02-16T12:52:56;100909.38;;;16.50;91.48
10712;BME280;5407;51.234;6.804;2024-02-16T12:55:25;100906.66;;;16.50;92.96
10712;BME280;5407;51.234;6.804;2024-02-16T12:57:52;100905.44;;;16.47;92.51
10712;BME280;5407;51.234;6.804;2024-02-16T13:00:19;100901.28;;;16.24;93.43
10712;BME280;5407;51.234;6.804;2024-02-16T13:02:46;100908.47;;;16.39;93.52